createdAt,value
2023-01-17T00:02:36.105Z,37.85
2023-01-17T00:07:56.725Z,37.97
2023-01-17T00:13:03.767Z,36.13
2023-01-17T00:18:06.259Z,31.42
2023-01-17T00:23:32.697Z,32.53
2023-01-17T00:28:40.091Z,27.95
2023-01-17T00:33:42.413Z,27.25
2023-01-17T00:38:44.411Z,26.52
2023-01-17T00:44:04.993Z,26.80
2023-01-17T00:49:26.360Z,26.30
2023-01-17T00:54:46.950Z,25.83
2023-01-17T01:00:07.767Z,26.23
2023-01-17T01:05:29.638Z,32.97
2023-01-17T01:10:51.334Z,29.80
2023-01-17T01:16:12.168Z,28.90
2023-01-17T01:21:32.917Z,26.95
2023-01-17T01:32:13.849Z,20.02
2023-01-17T01:37:15.965Z,25.35
2023-01-17T01:42:18.360Z,25.33
2023-01-17T01:47:29.346Z,25.73
2023-01-17T01:52:33.989Z,24.08
2023-01-17T01:57:42.705Z,24.30
2023-01-17T02:02:47.887Z,26.42
2023-01-17T02:08:17.624Z,24.40
2023-01-17T02:13:21.507Z,23.02
2023-01-17T02:19:00.434Z,22.92
2023-01-17T02:24:40.061Z,21.77
2023-01-17T02:30:11.208Z,22.75
2023-01-17T02:40:26.931Z,21.15
2023-01-17T02:45:29.530Z,22.38
2023-01-17T02:50:56.058Z,22.98
2023-01-17T02:56:08.704Z,21.40
2023-01-17T03:01:38.437Z,21.98
2023-01-17T03:06:47.555Z,21.50
2023-01-17T03:11:49.899Z,21.27
2023-01-17T03:16:52.307Z,20.60
2023-01-17T03:21:54.417Z,20.38
2023-01-17T03:26:56.644Z,19.65
2023-01-17T03:31:58.842Z,21.13
2023-01-17T03:37:00.916Z,21.65
2023-01-17T03:42:02.967Z,19.67
2023-01-17T03:47:05.072Z,18.65
2023-01-17T03:52:07.938Z,20.30
2023-01-17T03:57:10.148Z,18.15
2023-01-17T04:02:12.355Z,19.38
2023-01-17T04:07:14.574Z,19.45
2023-01-17T04:12:16.740Z,21.10
2023-01-17T04:17:20.530Z,20.48
2023-01-17T04:22:22.798Z,17.75
2023-01-17T04:27:24.935Z,18.20
2023-01-17T04:32:27.019Z,19.23
2023-01-17T04:37:29.068Z,20.13
2023-01-17T04:42:31.217Z,19.05
2023-01-17T04:47:36.191Z,20.58
2023-01-17T04:52:38.400Z,19.17
2023-01-17T04:57:40.455Z,19.77
2023-01-17T05:02:42.593Z,20.05
2023-01-17T05:07:44.822Z,20.15
2023-01-17T05:12:54.463Z,18.63
2023-01-17T05:17:56.759Z,15.15
2023-01-17T05:22:59.113Z,20.20
2023-01-17T05:28:01.808Z,20.27
2023-01-17T05:33:04.060Z,20.40
2023-01-17T05:38:06.245Z,17.90
2023-01-17T05:43:09.005Z,18.52
2023-01-17T05:48:11.157Z,21.08
2023-01-17T05:53:16.293Z,20.70
2023-01-17T05:58:21.567Z,21.73
2023-01-17T06:03:23.712Z,22.48
2023-01-17T06:08:25.807Z,22.58
2023-01-17T06:13:27.902Z,22.73
2023-01-17T06:18:31.233Z,21.02
2023-01-17T06:23:33.547Z,19.98
2023-01-17T06:28:36.023Z,21.60
2023-01-17T06:33:38.279Z,24.05
2023-01-17T06:38:40.343Z,19.65
2023-01-17T06:43:42.461Z,20.25
2023-01-17T06:48:44.718Z,22.48
2023-01-17T06:53:48.603Z,21.63
2023-01-17T06:58:51.906Z,23.25
2023-01-17T07:03:54.683Z,27.77
2023-01-17T07:08:57.062Z,26.65
2023-01-17T07:13:59.168Z,28.40
2023-01-17T07:19:01.256Z,24.15
2023-01-17T07:24:03.577Z,22.67
2023-01-17T07:29:06.110Z,28.17
2023-01-17T07:34:08.529Z,26.20
2023-01-17T07:39:10.740Z,21.33
2023-01-17T07:44:13.673Z,21.13
2023-01-17T07:49:15.827Z,22.35
2023-01-17T07:54:17.891Z,23.77
2023-01-17T07:59:20.116Z,24.20
2023-01-17T08:04:25.639Z,23.60
2023-01-17T08:09:28.063Z,24.52
2023-01-17T08:14:30.576Z,24.38
2023-01-17T08:19:32.753Z,25.75
2023-01-17T08:24:35.264Z,24.45
2023-01-17T08:29:37.544Z,18.92
2023-01-17T08:34:39.659Z,17.85
2023-01-17T08:39:41.763Z,16.27
2023-01-17T08:44:44.425Z,15.82
2023-01-17T08:49:46.684Z,15.38
2023-01-17T08:54:48.807Z,16.25
2023-01-17T08:59:50.927Z,17.48
2023-01-17T09:04:53.960Z,15.85
2023-01-17T09:09:56.098Z,16.08
2023-01-17T09:14:58.286Z,15.65
2023-01-17T09:20:00.559Z,16.40
2023-01-17T09:25:02.672Z,16.85
2023-01-17T09:30:05.589Z,15.77
2023-01-17T09:35:09.130Z,16.90
2023-01-17T09:40:23.218Z,18.13
2023-01-17T09:45:28.051Z,18.23
2023-01-17T09:50:33.204Z,17.95
2023-01-17T09:55:40.876Z,15.07
2023-01-17T10:00:51.563Z,17.13
2023-01-17T10:06:11.681Z,13.52
2023-01-17T10:11:39.181Z,15.57
2023-01-17T10:16:50.208Z,17.05
2023-01-17T10:22:02.662Z,17.02
2023-01-17T10:27:26.383Z,17.80
2023-01-17T10:32:32.988Z,20.67
2023-01-17T10:37:44.400Z,19.95
2023-01-17T10:42:54.495Z,25.95
2023-01-17T10:48:35.121Z,25.98
2023-01-17T10:53:57.350Z,28.13
2023-01-17T10:59:38.489Z,27.92
2023-01-17T11:04:45.339Z,26.98
2023-01-17T11:09:53.666Z,24.77
2023-01-17T11:20:43.549Z,24.15
2023-01-17T11:25:58.201Z,20.65
2023-01-17T11:31:24.289Z,20.15
2023-01-17T11:36:30.367Z,21.20
2023-01-17T11:41:35.247Z,17.98
2023-01-17T11:46:38.478Z,19.40
2023-01-17T11:51:43.611Z,19.75
2023-01-17T11:56:46.724Z,30.20
2023-01-17T12:02:16.559Z,35.58
2023-01-17T12:07:46.525Z,34.43
2023-01-17T12:13:19.159Z,34.30
2023-01-17T12:18:37.256Z,22.58
2023-01-17T12:24:02.610Z,30.20
2023-01-17T12:29:07.625Z,27.33
2023-01-17T12:34:24.886Z,23.02
2023-01-17T12:39:36.548Z,21.00
2023-01-17T12:45:06.163Z,20.67
2023-01-17T12:50:38.683Z,17.80
2023-01-17T12:55:46.710Z,17.70
2023-01-17T13:00:58.098Z,22.35
2023-01-17T13:06:03.157Z,17.67
2023-01-17T13:11:18.498Z,14.90
2023-01-17T13:16:30.705Z,13.15
2023-01-17T13:21:35.690Z,10.07
2023-01-17T13:26:50.007Z,8.10
2023-01-17T13:32:15.216Z,9.30
2023-01-17T13:37:19.868Z,7.30
2023-01-17T13:42:45.213Z,7.45
2023-01-17T13:47:47.447Z,7.82
2023-01-17T13:52:49.585Z,8.30
2023-01-17T13:57:51.713Z,9.20
2023-01-17T14:02:55.622Z,10.40
2023-01-17T14:08:12.759Z,9.48
2023-01-17T14:13:37.809Z,9.02
2023-01-17T14:18:43.389Z,9.88
2023-01-17T14:23:50.155Z,10.00
2023-01-17T14:28:53.140Z,7.15
2023-01-17T14:33:55.299Z,7.70
2023-01-17T14:38:57.535Z,5.90
2023-01-17T14:44:01.341Z,2.63
2023-01-17T14:49:06.590Z,2.72
2023-01-17T14:54:22.790Z,2.55
2023-01-17T14:59:25.111Z,2.60
2023-01-17T15:04:40.034Z,2.88
2023-01-17T15:09:45.017Z,2.90
2023-01-17T15:14:47.233Z,2.50
2023-01-17T15:19:54.284Z,2.10
2023-01-17T15:24:57.622Z,4.85
2023-01-17T15:30:02.735Z,4.22
2023-01-17T15:35:08.318Z,4.88
2023-01-17T15:40:20.624Z,4.28
2023-01-17T15:45:33.230Z,5.00
2023-01-17T15:50:36.864Z,3.78
2023-01-17T15:55:40.405Z,4.95
2023-01-17T16:00:44.548Z,6.25
2023-01-17T16:05:47.419Z,10.07
2023-01-17T16:10:55.468Z,13.20
2023-01-17T16:16:32.814Z,11.13
2023-01-17T16:21:35.089Z,6.35
2023-01-17T16:26:37.293Z,6.20
2023-01-17T16:31:39.564Z,4.55
2023-01-17T16:36:41.883Z,4.35
2023-01-17T16:41:44.859Z,4.70
2023-01-17T16:46:47.435Z,3.50
2023-01-17T16:51:50.366Z,4.78
2023-01-17T16:56:53.031Z,3.60
2023-01-17T17:01:55.242Z,3.13
2023-01-17T17:06:57.351Z,3.25
2023-01-17T17:11:59.464Z,3.13
2023-01-17T17:17:01.790Z,4.53
2023-01-17T17:22:06.875Z,2.72
2023-01-17T17:27:09.133Z,2.78
2023-01-17T17:32:11.917Z,3.38
2023-01-17T17:37:16.341Z,2.13
2023-01-17T17:42:20.406Z,3.83
2023-01-17T17:47:24.304Z,3.05
2023-01-17T17:52:26.474Z,3.60
2023-01-17T17:57:28.612Z,3.03
2023-01-17T18:02:31.840Z,3.55
2023-01-17T18:07:34.530Z,2.97
2023-01-17T18:12:36.674Z,3.47
2023-01-17T18:17:38.910Z,2.88
2023-01-17T18:22:42.264Z,2.72
2023-01-17T18:27:45.299Z,2.80
2023-01-17T18:32:50.240Z,3.38
2023-01-17T18:37:52.589Z,4.57
2023-01-17T18:42:55.129Z,4.45
2023-01-17T18:47:57.815Z,5.07
2023-01-17T18:53:00.206Z,5.53
2023-01-17T18:58:02.695Z,4.97
2023-01-17T19:03:06.847Z,5.90
2023-01-17T19:08:10.329Z,6.57
2023-01-17T19:13:12.950Z,6.75
2023-01-17T19:18:15.024Z,6.20
2023-01-17T19:23:17.611Z,4.63
2023-01-17T19:28:19.815Z,2.92
2023-01-17T19:33:22.134Z,3.25
2023-01-17T19:38:24.235Z,2.95
2023-01-17T19:43:26.400Z,1.80
2023-01-17T19:48:28.961Z,2.25
2023-01-17T19:53:31.066Z,1.88
2023-01-17T19:58:34.024Z,2.63
2023-01-17T20:03:38.059Z,2.53
2023-01-17T20:08:40.928Z,2.10
2023-01-17T20:13:43.071Z,1.73
2023-01-17T20:18:45.982Z,2.75
2023-01-17T20:23:50.365Z,2.47
2023-01-17T20:28:53.591Z,2.30
2023-01-17T20:33:56.659Z,2.13
2023-01-17T20:38:59.423Z,2.00
2023-01-17T20:44:02.802Z,2.42
2023-01-17T20:49:07.965Z,2.47
2023-01-17T20:54:14.817Z,2.60
2023-01-17T20:59:19.905Z,2.20
2023-01-17T21:04:26.180Z,2.15
2023-01-17T21:09:28.521Z,2.42
2023-01-17T21:14:30.857Z,2.80
2023-01-17T21:19:32.953Z,2.78
2023-01-17T21:24:35.050Z,2.85
2023-01-17T21:29:37.191Z,3.47
2023-01-17T21:34:39.275Z,3.08
2023-01-17T21:39:41.452Z,2.17
2023-01-17T21:44:45.632Z,3.97
2023-01-17T21:49:48.412Z,4.57
2023-01-17T21:55:09.070Z,3.10
2023-01-17T22:00:16.953Z,3.17
2023-01-17T22:05:19.153Z,3.88
2023-01-17T22:10:21.391Z,3.60
2023-01-17T22:15:23.831Z,5.10
2023-01-17T22:20:26.092Z,4.78
2023-01-17T22:25:28.451Z,3.05
2023-01-17T22:30:30.697Z,3.05
2023-01-17T22:35:32.977Z,3.80
2023-01-17T22:40:38.596Z,2.63
2023-01-17T22:45:40.861Z,2.65
2023-01-17T22:50:43.356Z,2.13
2023-01-17T22:55:45.527Z,2.50
2023-01-17T23:00:47.688Z,1.45
2023-01-17T23:05:49.771Z,1.27
2023-01-17T23:11:10.289Z,2.22
2023-01-17T23:16:30.922Z,2.78
2023-01-17T23:21:52.887Z,1.92
2023-01-17T23:27:13.355Z,1.40
2023-01-17T23:32:15.479Z,2.00
2023-01-17T23:37:17.667Z,1.83
2023-01-17T23:42:38.375Z,2.60
2023-01-17T23:47:40.483Z,2.33
2023-01-17T23:52:42.548Z,1.85
2023-01-17T23:57:45.042Z,1.73
